Time;durP1;ratioP1;P1;durP2;ratioP2;P2;SDS_P1;SDS_P2;PMS_P1;PMS_P2;Temp;Humidity;BMP_temperature;BMP_pressure;BME280_temperature;BME280_humidity;BME280_pressure;Samples;Min_cycle;Max_cycle;Signal;HPM_P1;HPM_P2
2021/07/04 00:00:44;;;;;;;9.43;8.60;;;17.60;99.90;;;;;;4964995;28;20217;-74
2021/07/04 00:03:13;;;;;;;8.47;7.67;;;17.60;99.90;;;;;;4974979;28;20215;-74
2021/07/04 00:05:41;;;;;;;6.30;5.53;;;17.60;99.90;;;;;;4978461;28;20573;-74
2021/07/04 00:08:10;;;;;;;7.67;6.47;;;17.60;99.90;;;;;;4969884;28;20194;-74
2021/07/04 00:10:40;;;;;;;7.17;6.23;;;17.60;99.90;;;;;;4975069;28;20206;-74
2021/07/04 00:13:07;;;;;;;5.73;5.13;;;17.50;99.90;;;;;;4985155;28;20223;-74
2021/07/04 00:15:40;;;;;;;6.00;5.40;;;17.50;99.90;;;;;;4972133;28;20194;-74
2021/07/04 00:18:08;;;;;;;6.27;5.67;;;17.60;99.90;;;;;;4968482;28;20195;-74
2021/07/04 00:20:35;;;;;;;6.43;5.77;;;17.50;99.90;;;;;;4957674;28;20206;-74
2021/07/04 00:23:02;;;;;;;5.77;5.23;;;17.50;99.90;;;;;;4974797;28;20683;-74
2021/07/04 00:25:30;;;;;;;8.43;7.17;;;17.50;99.90;;;;;;4975385;28;20210;-74
2021/07/04 00:27:58;;;;;;;5.90;5.40;;;17.50;99.90;;;;;;4951999;28;20201;-74
2021/07/04 00:30:25;;;;;;;9.10;8.20;;;17.50;99.90;;;;;;4964732;28;20278;-73
2021/07/04 00:32:53;;;;;;;7.50;6.90;;;17.50;99.90;;;;;;4974179;28;20217;-74
2021/07/04 00:35:22;;;;;;;7.70;7.00;;;17.50;99.90;;;;;;4975120;28;20190;-74
2021/07/04 00:37:50;;;;;;;7.70;6.90;;;17.50;99.90;;;;;;4974418;28;20194;-74
2021/07/04 00:40:19;;;;;;;10.20;9.40;;;17.40;99.90;;;;;;4963400;28;20211;-74
2021/07/04 00:42:47;;;;;;;8.57;7.87;;;17.50;99.90;;;;;;4958289;28;20222;-74
2021/07/04 00:45:18;;;;;;;5.07;4.57;;;17.40;99.90;;;;;;4961030;28;20612;-74
2021/07/04 00:47:46;;;;;;;5.43;4.70;;;17.40;99.90;;;;;;4964890;28;20208;-74
2021/07/04 00:50:14;;;;;;;5.13;4.60;;;17.30;99.90;;;;;;4959386;28;20250;-74
2021/07/04 00:52:45;;;;;;;7.90;7.30;;;17.20;99.90;;;;;;4951177;28;20783;-74
2021/07/04 00:55:14;;;;;;;5.93;5.33;;;17.20;99.90;;;;;;4974261;28;20186;-75
2021/07/04 00:57:42;;;;;;;5.70;5.10;;;17.20;99.90;;;;;;4963768;28;20249;-74
2021/07/04 01:00:12;;;;;;;10.00;9.13;;;17.20;99.90;;;;;;4960023;28;20232;-74
2021/07/04 01:02:39;;;;;;;5.40;4.90;;;17.20;99.90;;;;;;4952335;28;20203;-74
2021/07/04 01:05:10;;;;;;;8.27;7.17;;;17.20;99.90;;;;;;4964975;28;20273;-74
2021/07/04 01:07:38;;;;;;;5.70;5.10;;;17.10;99.90;;;;;;4956796;28;20621;-74
2021/07/04 01:10:08;;;;;;;5.80;5.20;;;17.00;99.90;;;;;;4964684;28;20684;-74
2021/07/04 01:12:36;;;;;;;9.30;8.53;;;17.00;99.90;;;;;;4956481;28;20686;-74
2021/07/04 01:15:06;;;;;;;6.40;5.20;;;16.90;99.90;;;;;;4962243;28;20198;-74
2021/07/04 01:17:34;;;;;;;5.57;4.97;;;17.00;99.90;;;;;;4961497;28;20280;-74
2021/07/04 01:20:01;;;;;;;7.37;5.37;;;17.00;99.90;;;;;;4957759;28;20665;-74
2021/07/04 01:22:34;;;;;;;8.47;7.77;;;16.90;99.90;;;;;;4959801;28;20194;-74
2021/07/04 01:25:04;;;;;;;5.87;5.27;;;16.90;99.90;;;;;;4967578;28;20285;-74
2021/07/04 01:27:32;;;;;;;9.00;8.20;;;16.90;99.90;;;;;;4964721;28;20224;-74
2021/07/04 01:29:59;;;;;;;9.60;8.80;;;16.90;99.90;;;;;;4973589;28;20668;-74
2021/07/04 01:32:27;;;;;;;6.70;5.60;;;16.90;99.90;;;;;;4964439;28;20211;-74
2021/07/04 01:34:54;;;;;;;7.53;5.47;;;16.90;99.90;;;;;;4956251;28;20284;-74
2021/07/04 01:37:21;;;;;;;8.07;6.77;;;16.80;99.90;;;;;;4985384;28;20199;-74
2021/07/04 01:39:48;;;;;;;6.20;5.60;;;16.80;99.90;;;;;;4963596;28;20557;-74
2021/07/04 01:42:16;;;;;;;6.17;5.57;;;16.80;99.90;;;;;;4972718;28;20703;-74
2021/07/04 01:44:43;;;;;;;8.33;7.17;;;16.80;99.90;;;;;;4972481;28;20295;-74
2021/07/04 01:47:10;;;;;;;7.33;6.43;;;16.80;99.90;;;;;;4964303;28;20188;-74
2021/07/04 01:49:41;;;;;;;6.77;6.07;;;16.70;99.90;;;;;;4956749;28;20193;-76
2021/07/04 01:52:09;;;;;;;9.00;8.30;;;16.70;99.90;;;;;;4973957;28;20283;-76
2021/07/04 01:54:38;;;;;;;6.20;5.33;;;16.70;99.90;;;;;;4956593;28;20252;-76
2021/07/04 01:57:12;;;;;;;5.17;4.67;;;16.60;99.90;;;;;;4956058;28;20217;-76
2021/07/04 01:59:47;;;;;;;7.53;6.93;;;16.60;99.90;;;;;;4966280;28;20402;-76
2021/07/04 02:02:25;;;;;;;5.57;5.07;;;16.60;99.90;;;;;;4955531;28;20663;-76
2021/07/04 02:04:53;;;;;;;6.00;5.40;;;16.50;99.90;;;;;;4956379;28;20262;-76
2021/07/04 02:07:23;;;;;;;6.97;6.10;;;16.40;99.90;;;;;;4969571;28;20300;-76
2021/07/04 02:09:55;;;;;;;6.80;5.80;;;16.40;99.90;;;;;;4956387;28;20256;-76
2021/07/04 02:12:28;;;;;;;6.00;5.40;;;16.40;99.90;;;;;;4973438;28;20187;-76
2021/07/04 02:14:57;;;;;;;6.67;5.90;;;16.40;99.90;;;;;;4956448;28;20257;-76
2021/07/04 02:17:43;;;;;;;8.37;5.83;;;16.40;99.90;;;;;;4937235;29;20198;-76
2021/07/04 02:20:35;;;;;;;6.70;6.03;;;16.40;99.90;;;;;;4962271;28;20202;-76
2021/07/04 02:23:37;;;;;;;6.10;5.50;;;16.40;99.90;;;;;;4947365;29;20222;-75
2021/07/04 02:26:19;;;;;;;6.53;5.83;;;16.40;99.90;;;;;;4960927;28;20554;-76
2021/07/04 02:28:49;;;;;;;7.13;6.40;;;16.50;99.90;;;;;;4972592;28;20330;-76
2021/07/04 02:31:34;;;;;;;6.93;6.23;;;16.50;99.90;;;;;;4957936;28;20202;-76
2021/07/04 02:34:01;;;;;;;6.67;6.00;;;16.60;99.90;;;;;;4956056;28;20280;-76
2021/07/04 02:36:34;;;;;;;6.93;6.00;;;16.60;99.90;;;;;;4956129;28;20235;-76
2021/07/04 02:39:13;;;;;;;6.83;5.30;;;16.60;99.90;;;;;;4956211;28;20282;-76
2021/07/04 02:41:41;;;;;;;6.20;5.60;;;16.60;99.90;;;;;;4973276;28;20204;-76
2021/07/04 02:44:09;;;;;;;6.93;6.23;;;16.60;99.90;;;;;;5012136;23;20584;-83
2021/07/04 02:46:38;;;;;;;7.80;6.40;;;16.60;99.90;;;;;;4991998;28;20579;-84
2021/07/04 02:49:06;;;;;;;8.30;7.17;;;16.60;99.90;;;;;;4993884;28;20204;-84
2021/07/04 02:51:33;;;;;;;8.73;6.80;;;16.50;99.90;;;;;;4991216;28;20244;-83
2021/07/04 02:54:02;;;;;;;8.00;6.63;;;16.60;99.90;;;;;;4985266;28;20213;-83
2021/07/04 02:56:29;;;;;;;7.33;6.60;;;16.60;99.90;;;;;;4989472;28;20684;-83
2021/07/04 02:58:57;;;;;;;6.93;6.07;;;16.60;99.90;;;;;;4971722;28;20195;-84
2021/07/04 03:01:27;;;;;;;7.77;6.33;;;16.50;99.90;;;;;;4984086;28;20602;-79
2021/07/04 03:04:02;;;;;;;7.20;6.03;;;16.50;99.90;;;;;;4972077;28;20276;-80
2021/07/04 03:06:30;;;;;;;6.67;5.97;;;16.50;99.90;;;;;;4966995;28;20206;-78
2021/07/04 03:08:57;;;;;;;8.57;6.83;;;16.50;99.90;;;;;;4995435;28;20672;-78
2021/07/04 03:11:24;;;;;;;7.73;6.47;;;16.50;99.90;;;;;;4993743;28;20208;-79
2021/07/04 03:13:52;;;;;;;6.57;5.87;;;16.50;99.90;;;;;;4992318;28;20271;-78
2021/07/04 03:16:33;;;;;;;6.13;5.53;;;16.50;99.90;;;;;;4979598;28;20743;-77
2021/07/04 03:28:55;;;;;;;7.83;7.03;;;16.50;99.90;;;;;;4999608;28;20209;-78
2021/07/04 03:31:43;;;;;;;8.47;6.43;;;16.60;99.90;;;;;;5009586;28;20566;-78
2021/07/04 03:34:29;;;;;;;7.90;6.50;;;16.50;99.90;;;;;;4993265;28;20224;-77
2021/07/04 03:37:22;;;;;;;9.83;6.53;;;16.60;99.90;;;;;;5007104;28;20197;-77
2021/07/04 03:39:57;;;;;;;7.10;6.40;;;16.60;99.90;;;;;;5000221;28;20560;-77
2021/07/04 03:42:40;;;;;;;7.20;6.30;;;16.60;99.90;;;;;;5001698;28;20180;-77
2021/07/04 03:45:25;;;;;;;7.47;6.77;;;16.60;99.90;;;;;;4996663;28;20221;-77
2021/07/04 03:47:59;;;;;;;8.67;6.37;;;16.60;99.90;;;;;;4996514;28;20239;-78
2021/07/04 03:50:48;;;;;;;7.00;6.30;;;16.70;99.90;;;;;;5002596;28;20197;-77
2021/07/04 03:53:39;;;;;;;8.50;5.93;;;16.70;99.90;;;;;;4981438;28;20701;-78
2021/07/04 03:56:31;;;;;;;7.07;6.20;;;16.70;99.90;;;;;;4997998;28;20699;-78
2021/07/04 03:59:09;;;;;;;7.93;6.77;;;16.80;99.90;;;;;;4990651;28;20305;-78
2021/07/04 04:01:37;;;;;;;6.90;6.20;;;16.90;99.90;;;;;;4992587;28;20202;-77
2021/07/04 04:04:11;;;;;;;10.33;6.33;;;16.90;99.90;;;;;;4998858;23;20583;-77
2021/07/04 04:06:48;;;;;;;9.47;6.20;;;17.10;99.90;;;;;;4984874;28;20241;-78
2021/07/04 04:09:33;;;;;;;9.60;6.63;;;17.10;99.90;;;;;;4987477;28;20200;-78
2021/07/04 04:12:19;;;;;;;7.40;6.20;;;17.20;99.90;;;;;;4989686;28;20272;-79
2021/07/04 04:14:53;;;;;;;6.60;5.93;;;17.30;99.90;;;;;;4991737;28;20301;-78
2021/07/04 04:17:39;;;;;;;6.30;5.60;;;17.40;99.90;;;;;;4982548;28;20196;-79
2021/07/04 04:20:10;;;;;;;6.73;5.70;;;17.50;99.90;;;;;;4968449;28;20201;-80
2021/07/04 04:22:39;;;;;;;7.53;5.97;;;17.50;99.90;;;;;;4977518;28;20201;-81
2021/07/04 04:25:06;;;;;;;6.57;5.97;;;17.60;99.90;;;;;;4996985;28;20211;-80
2021/07/04 04:27:36;;;;;;;5.93;5.33;;;17.60;99.90;;;;;;4998638;28;20802;-83
2021/07/04 04:30:07;;;;;;;6.23;5.63;;;17.60;99.90;;;;;;4986017;28;20232;-82
2021/07/04 04:32:38;;;;;;;6.57;5.43;;;17.60;99.90;;;;;;4987198;28;20236;-82
2021/07/04 04:35:08;;;;;;;7.43;5.57;;;17.60;99.90;;;;;;4983765;28;20222;-82
2021/07/04 04:37:35;;;;;;;5.87;5.27;;;17.60;99.90;;;;;;4986760;28;20220;-82
2021/07/04 04:40:04;;;;;;;9.77;5.50;;;17.70;99.90;;;;;;4994208;28;20216;-82
2021/07/04 04:42:31;;;;;;;6.17;5.40;;;17.70;99.90;;;;;;4965044;28;20198;-83
2021/07/04 04:44:58;;;;;;;6.03;5.43;;;17.80;99.90;;;;;;4989111;28;20212;-82
2021/07/04 04:47:25;;;;;;;5.70;5.10;;;17.80;99.90;;;;;;4992273;28;20205;-82
2021/07/04 04:49:52;;;;;;;6.13;5.53;;;17.80;99.90;;;;;;4993337;28;20190;-83
2021/07/04 04:52:19;;;;;;;6.30;5.70;;;17.90;99.90;;;;;;4984158;28;20579;-82
2021/07/04 04:54:46;;;;;;;6.80;5.73;;;17.90;99.90;;;;;;4992483;28;20231;-81
2021/07/04 04:57:15;;;;;;;6.90;5.67;;;18.00;99.90;;;;;;4993369;28;20203;-81
2021/07/04 04:59:42;;;;;;;6.40;5.60;;;18.10;99.90;;;;;;5008595;28;20288;-82
2021/07/04 05:02:09;;;;;;;6.10;5.40;;;18.20;99.90;;;;;;5001302;28;20255;-81
2021/07/04 05:08:43;;;;;;;6.40;5.30;;;18.50;99.90;;;;;;4995972;28;20225;-80
2021/07/04 05:11:11;;;;;;;6.43;5.57;;;18.70;99.90;;;;;;4998731;28;20257;-82
2021/07/04 05:13:42;;;;;;;7.57;6.00;;;18.80;99.90;;;;;;4999394;28;20276;-82
2021/07/04 05:16:09;;;;;;;10.73;9.93;;;19.00;99.90;;;;;;4998952;28;20230;-82
2021/07/04 05:18:37;;;;;;;5.57;5.07;;;19.30;99.90;;;;;;4982911;28;20300;-82
2021/07/04 05:21:04;;;;;;;6.67;6.07;;;19.30;99.90;;;;;;4995117;28;20270;-82
2021/07/04 05:23:41;;;;;;;11.40;10.40;;;19.50;99.90;;;;;;4991240;28;20209;-81
2021/07/04 05:26:09;;;;;;;10.70;9.83;;;19.70;99.90;;;;;;5007183;28;20189;-82
2021/07/04 05:28:42;;;;;;;10.63;9.93;;;19.80;99.90;;;;;;4979985;28;20203;-81
2021/07/04 05:31:09;;;;;;;8.27;7.53;;;19.90;99.90;;;;;;4979532;28;20260;-82
2021/07/04 05:33:36;;;;;;;8.77;8.07;;;20.10;99.90;;;;;;4990155;28;20226;-81
2021/07/04 05:36:03;;;;;;;11.73;10.93;;;20.20;99.90;;;;;;4997891;28;20591;-82
2021/07/04 05:38:33;;;;;;;8.27;7.57;;;20.20;99.90;;;;;;4998233;28;20647;-81
2021/07/04 05:41:06;;;;;;;7.53;6.43;;;20.30;99.90;;;;;;4979165;28;20195;-82
2021/07/04 05:43:33;;;;;;;8.90;8.20;;;20.30;99.90;;;;;;4987498;28;20634;-81
2021/07/04 05:46:02;;;;;;;10.47;9.67;;;20.20;99.90;;;;;;4987669;28;20244;-82
2021/07/04 05:48:30;;;;;;;7.90;7.10;;;20.20;99.90;;;;;;4996299;28;20188;-82
2021/07/04 05:50:57;;;;;;;7.83;7.23;;;20.20;99.90;;;;;;4988411;28;20220;-82
2021/07/04 05:53:24;;;;;;;8.40;7.80;;;20.00;99.90;;;;;;4996426;28;20223;-82
2021/07/04 05:55:51;;;;;;;11.73;10.73;;;19.80;99.90;;;;;;4981404;28;20222;-83
2021/07/04 05:58:19;;;;;;;10.17;9.47;;;19.70;99.90;;;;;;4994235;28;20608;-81
2021/07/04 06:00:46;;;;;;;12.10;11.20;;;19.50;99.90;;;;;;4994173;28;20571;-81
2021/07/04 06:03:15;;;;;;;10.87;10.17;;;19.50;99.90;;;;;;4993800;28;20202;-81
2021/07/04 06:05:42;;;;;;;11.53;10.73;;;19.50;99.90;;;;;;4994830;28;20666;-83
2021/07/04 06:08:09;;;;;;;5.70;5.10;;;19.60;99.90;;;;;;4984461;28;20225;-82
2021/07/04 06:10:37;;;;;;;5.90;5.30;;;19.70;99.90;;;;;;4996947;28;20201;-81
2021/07/04 06:13:06;;;;;;;5.77;5.13;;;19.70;99.90;;;;;;4999987;28;20685;-84
2021/07/04 06:15:46;;;;;;;7.00;6.40;;;20.00;99.90;;;;;;4977138;28;20289;-83
2021/07/04 06:18:21;;;;;;;5.40;4.90;;;20.30;99.90;;;;;;4973287;28;20664;-81
2021/07/04 07:49:27;;;;;;;8.30;7.60;;;26.30;99.90;;;;;;4807357;29;20558;-79
2021/07/04 08:30:06;;;;;;;10.20;9.50;;;25.10;99.90;;;;;;4749164;30;20224;-79
2021/07/04 08:49:45;;;;;;;10.13;9.33;;;24.20;99.90;;;;;;5187755;23;20253;-81
2021/07/04 08:52:12;;;;;;;9.03;8.43;;;24.30;99.90;;;;;;4982089;28;20205;-81
2021/07/04 08:54:39;;;;;;;9.87;9.13;;;24.60;99.90;;;;;;4978302;28;20194;-81
2021/07/04 08:57:09;;;;;;;9.13;8.50;;;24.80;99.90;;;;;;4989381;28;20196;-82
2021/07/04 08:59:36;;;;;;;10.00;9.23;;;25.00;99.90;;;;;;4983892;28;20223;-81
2021/07/04 09:02:04;;;;;;;9.30;8.70;;;25.00;99.90;;;;;;4976670;28;20193;-81
2021/07/04 09:04:31;;;;;;;9.23;8.60;;;25.20;99.90;;;;;;4973710;28;20221;-83
2021/07/04 09:07:00;;;;;;;9.83;9.03;;;25.30;99.90;;;;;;4949741;28;20653;-81
2021/07/04 09:09:28;;;;;;;8.20;7.60;;;25.50;99.90;;;;;;4969320;28;20217;-81
2021/07/04 09:11:59;;;;;;;8.30;7.60;;;26.00;99.90;;;;;;4976353;28;20225;-81
2021/07/04 09:14:32;;;;;;;4.50;4.10;;;26.10;99.90;;;;;;4969059;28;20200;-80
2021/07/04 09:16:59;;;;;;;7.93;7.20;;;26.40;99.90;;;;;;4968853;28;20666;-82
2021/07/04 09:19:27;;;;;;;4.40;4.00;;;26.30;99.90;;;;;;4978145;28;20221;-82
2021/07/04 09:22:03;;;;;;;4.87;4.47;;;26.20;99.90;;;;;;4968924;28;20198;-81
2021/07/04 09:24:32;;;;;;;6.57;4.43;;;26.40;99.90;;;;;;4976472;28;20185;-81
2021/07/04 09:26:59;;;;;;;7.40;6.80;;;26.60;99.90;;;;;;4965519;28;20708;-81
2021/07/04 09:29:43;;;;;;;7.30;6.60;;;26.60;99.90;;;;;;4972822;28;20217;-81
2021/07/04 09:32:14;;;;;;;8.03;7.43;;;26.60;99.90;;;;;;4962184;28;20194;-80
2021/07/04 09:34:41;;;;;;;8.70;8.10;;;26.50;99.90;;;;;;4962690;28;20188;-81
2021/07/04 09:37:09;;;;;;;9.20;8.50;;;26.40;99.90;;;;;;4961133;28;20202;-81
2021/07/04 09:39:36;;;;;;;9.60;8.90;;;26.50;99.90;;;;;;4964886;28;20215;-82
2021/07/04 09:42:08;;;;;;;8.63;8.03;;;27.00;99.90;;;;;;4969876;28;20201;-82
2021/07/04 09:44:36;;;;;;;8.50;7.90;;;27.60;99.90;;;;;;4969310;28;20207;-82
2021/07/04 09:47:27;;;;;;;9.27;8.63;;;27.60;99.90;;;;;;4967373;28;20194;-82
2021/07/04 09:50:03;;;;;;;8.47;7.67;;;27.40;99.90;;;;;;4958410;28;20567;-82
2021/07/04 09:52:31;;;;;;;8.67;8.07;;;27.30;99.90;;;;;;4957263;28;20250;-82
2021/07/04 09:55:01;;;;;;;8.37;7.73;;;27.30;99.90;;;;;;4964997;28;20197;-80
2021/07/04 09:57:29;;;;;;;8.60;8.00;;;26.80;99.90;;;;;;4964716;28;20195;-81
2021/07/04 10:00:17;;;;;;;8.77;8.17;;;27.10;99.90;;;;;;4963912;28;20214;-81
2021/07/04 10:03:03;;;;;;;8.43;7.90;;;27.50;99.90;;;;;;4967095;28;20210;-80
2021/07/04 10:05:30;;;;;;;8.60;8.00;;;27.70;99.90;;;;;;4970232;28;20213;-82
2021/07/04 10:07:59;;;;;;;8.47;7.87;;;27.50;99.90;;;;;;4956808;28;20535;-81
2021/07/04 10:10:25;;;;;;;8.83;8.23;;;27.30;99.90;;;;;;4971864;28;20220;-80
2021/07/04 10:12:54;;;;;;;8.20;7.60;;;27.10;99.90;;;;;;4954456;28;20194;-81
2021/07/04 10:15:21;;;;;;;8.50;7.80;;;26.90;99.90;;;;;;4969435;28;20663;-82
2021/07/04 10:17:48;;;;;;;8.50;7.90;;;26.80;99.90;;;;;;4965583;28;20206;-82
2021/07/04 10:20:16;;;;;;;8.40;7.80;;;27.00;99.90;;;;;;4970672;28;20217;-82
2021/07/04 10:22:43;;;;;;;8.63;8.03;;;27.60;99.90;;;;;;4964985;28;20198;-82
2021/07/04 10:25:12;;;;;;;8.27;7.63;;;27.90;99.90;;;;;;4966693;28;20214;-82
2021/07/04 10:27:40;;;;;;;8.73;8.13;;;28.20;99.90;;;;;;4970993;28;20213;-82
2021/07/04 10:30:08;;;;;;;8.60;7.80;;;28.20;99.90;;;;;;4969296;28;20224;-82
2021/07/04 10:32:35;;;;;;;8.13;7.60;;;28.40;99.90;;;;;;4974574;28;20260;-83
2021/07/04 10:35:08;;;;;;;8.37;7.87;;;28.20;99.90;;;;;;4975377;28;20193;-82
2021/07/04 10:37:37;;;;;;;8.37;7.77;;;28.10;99.90;;;;;;4977257;28;20662;-82
2021/07/04 10:40:14;;;;;;;8.50;7.87;;;28.30;99.90;;;;;;4972215;28;20222;-82
2021/07/04 10:42:41;;;;;;;8.23;7.63;;;28.30;99.90;;;;;;4993162;28;20228;-82
2021/07/04 10:45:40;;;;;;;9.20;8.50;;;28.20;99.90;;;;;;4973573;28;20264;-82
2021/07/04 10:48:19;;;;;;;8.50;7.90;;;28.10;99.90;;;;;;4914481;29;20713;-82
2021/07/04 10:51:12;;;;;;;8.90;8.30;;;27.80;99.90;;;;;;4968098;28;20256;-82
2021/07/04 10:53:47;;;;;;;8.33;7.73;;;27.80;99.90;;;;;;4963776;28;20198;-82
2021/07/04 10:56:42;;;;;;;8.63;8.03;;;27.60;99.90;;;;;;4973959;28;20278;-82
2021/07/04 10:59:11;;;;;;;8.63;7.93;;;27.50;99.90;;;;;;4984028;28;20563;-82
2021/07/04 11:02:00;;;;;;;8.30;7.70;;;27.50;99.90;;;;;;4971209;28;20481;-82
2021/07/04 11:04:53;;;;;;;8.53;7.93;;;27.40;99.90;;;;;;4968160;28;20201;-82
2021/07/04 11:07:20;;;;;;;8.53;7.93;;;27.40;99.90;;;;;;4974831;28;20325;-82
2021/07/04 11:10:15;;;;;;;7.83;7.23;;;27.50;99.90;;;;;;4966958;28;20207;-82
2021/07/04 11:12:44;;;;;;;8.83;8.20;;;27.70;99.90;;;;;;4974372;28;20617;-82
2021/07/04 11:15:30;;;;;;;8.80;8.20;;;27.70;99.90;;;;;;4972904;28;20265;-82
2021/07/04 11:18:09;;;;;;;8.87;8.27;;;27.70;99.90;;;;;;4982898;28;20198;-82
2021/07/04 11:20:58;;;;;;;9.07;8.37;;;27.80;99.90;;;;;;4974872;28;20624;-83
2021/07/04 11:23:27;;;;;;;8.87;8.23;;;27.80;99.90;;;;;;4976221;28;20195;-82
2021/07/04 11:25:57;;;;;;;8.80;8.20;;;27.70;99.90;;;;;;4977055;28;20224;-81
2021/07/04 11:28:27;;;;;;;8.50;7.90;;;27.50;99.90;;;;;;4962585;28;20217;-82
2021/07/04 11:31:15;;;;;;;8.73;8.13;;;27.50;99.90;;;;;;4981201;28;20224;-82
2021/07/04 11:33:44;;;;;;;8.60;8.00;;;27.60;99.90;;;;;;4972608;28;20202;-82
2021/07/04 11:36:22;;;;;;;9.03;8.33;;;27.70;99.90;;;;;;4974725;28;20194;-82
2021/07/04 11:38:52;;;;;;;8.70;8.10;;;27.50;99.90;;;;;;4985550;28;20198;-82
2021/07/04 11:41:21;;;;;;;8.77;8.17;;;27.10;99.90;;;;;;4990649;28;20304;-82
2021/07/04 11:43:52;;;;;;;8.10;7.50;;;27.00;99.90;;;;;;4970188;28;20203;-81
2021/07/04 11:46:21;;;;;;;8.57;7.97;;;27.00;99.90;;;;;;4965940;28;20216;-82
2021/07/04 11:48:54;;;;;;;8.80;8.10;;;26.60;99.90;;;;;;4970128;28;20206;-82
2021/07/04 11:51:24;;;;;;;8.50;7.90;;;26.70;99.90;;;;;;4968862;28;20222;-82
2021/07/04 11:53:53;;;;;;;8.20;7.60;;;26.60;99.90;;;;;;4969205;28;20210;-81
2021/07/04 11:56:21;;;;;;;8.43;7.83;;;26.60;99.90;;;;;;4972385;28;20240;-83
2021/07/04 11:58:49;;;;;;;8.60;7.87;;;26.60;99.90;;;;;;4971593;28;20191;-83
2021/07/04 12:01:18;;;;;;;7.80;7.20;;;26.50;99.90;;;;;;4972750;28;20217;-82
2021/07/04 12:03:52;;;;;;;8.10;7.50;;;26.60;99.90;;;;;;4967799;28;20197;-81
2021/07/04 12:06:19;;;;;;;8.53;7.93;;;26.60;99.90;;;;;;4964434;28;20582;-80
2021/07/04 12:08:58;;;;;;;8.07;7.47;;;26.70;99.90;;;;;;4965435;28;20194;-81
2021/07/04 12:11:43;;;;;;;8.27;7.67;;;26.80;99.90;;;;;;4974803;28;20313;-82
2021/07/04 12:14:29;;;;;;;8.80;8.20;;;26.90;99.90;;;;;;4969877;28;20245;-82
2021/07/04 12:16:57;;;;;;;8.57;7.97;;;26.80;99.90;;;;;;4974255;28;20208;-82
2021/07/04 12:19:32;;;;;;;8.87;8.17;;;26.70;99.90;;;;;;4982311;28;20226;-81
2021/07/04 12:22:01;;;;;;;8.63;7.93;;;26.80;99.90;;;;;;4963108;28;20193;-81
2021/07/04 12:24:36;;;;;;;8.07;7.47;;;26.80;99.90;;;;;;4961382;28;20217;-81
2021/07/04 12:27:04;;;;;;;8.27;7.67;;;26.90;99.90;;;;;;4966173;28;20226;-83
2021/07/04 12:29:47;;;;;;;6.60;6.10;;;27.10;99.90;;;;;;4972182;28;20214;-82
2021/07/04 12:32:14;;;;;;;7.60;7.00;;;27.60;99.90;;;;;;4974447;28;20358;-82
2021/07/04 12:34:41;;;;;;;7.43;6.93;;;27.70;99.90;;;;;;4974900;28;20194;-83
2021/07/04 12:37:08;;;;;;;8.00;7.40;;;27.80;99.90;;;;;;4976612;28;20222;-83
2021/07/04 12:39:35;;;;;;;7.70;7.10;;;27.70;99.90;;;;;;4975896;28;20225;-83
2021/07/04 12:42:03;;;;;;;7.70;7.10;;;27.80;99.90;;;;;;4975317;28;20198;-83
2021/07/04 12:44:31;;;;;;;8.30;7.70;;;27.90;99.90;;;;;;4969795;28;20189;-83
2021/07/04 12:46:58;;;;;;;6.47;5.97;;;27.90;99.90;;;;;;4972957;28;20221;-82
2021/07/04 12:49:25;;;;;;;7.77;7.23;;;27.80;99.90;;;;;;4972667;28;20214;-83
2021/07/04 12:51:52;;;;;;;8.17;7.57;;;27.80;99.90;;;;;;4966470;28;20217;-82
2021/07/04 12:54:20;;;;;;;8.20;7.60;;;27.80;99.90;;;;;;4984012;28;20551;-83
2021/07/04 12:56:49;;;;;;;8.17;7.57;;;27.90;99.90;;;;;;4981162;28;20190;-83
2021/07/04 12:59:25;;;;;;;7.93;7.33;;;27.90;99.90;;;;;;4970116;28;20205;-82
2021/07/04 13:01:58;;;;;;;7.80;7.20;;;28.10;99.90;;;;;;4987059;28;20209;-84
2021/07/04 13:04:26;;;;;;;8.80;8.00;;;28.40;99.90;;;;;;4981281;28;20229;-83
2021/07/04 13:07:01;;;;;;;8.10;7.50;;;28.20;99.90;;;;;;4962326;28;20218;-84
2021/07/04 13:09:41;;;;;;;8.13;7.53;;;28.30;99.90;;;;;;4982543;28;20505;-83
2021/07/04 13:12:11;;;;;;;7.70;7.20;;;28.40;99.90;;;;;;4974962;28;20843;-83
2021/07/04 13:14:40;;;;;;;8.10;7.60;;;28.40;99.90;;;;;;4965281;28;20206;-83
2021/07/04 13:17:16;;;;;;;7.80;7.30;;;28.40;99.90;;;;;;4972861;28;20190;-83
2021/07/04 13:19:43;;;;;;;7.43;6.93;;;28.20;99.90;;;;;;4980411;28;20221;-82
2021/07/04 13:22:15;;;;;;;7.67;7.07;;;27.90;99.90;;;;;;4979070;28;20204;-83
2021/07/04 13:24:51;;;;;;;7.10;6.60;;;27.80;99.90;;;;;;4974358;28;20195;-82
2021/07/04 13:27:22;;;;;;;7.17;6.50;;;27.50;99.90;;;;;;4978120;28;20214;-82
2021/07/04 13:29:50;;;;;;;7.37;6.67;;;27.50;99.90;;;;;;4974390;28;20214;-83
2021/07/04 13:32:21;;;;;;;6.97;6.47;;;27.60;99.90;;;;;;4982990;28;20195;-83
2021/07/04 13:35:07;;;;;;;6.70;6.20;;;27.50;99.90;;;;;;4975285;28;21438;-82
2021/07/04 13:37:36;;;;;;;6.50;6.00;;;27.30;99.90;;;;;;4981902;28;20182;-83
2021/07/04 13:40:07;;;;;;;6.87;6.37;;;27.20;99.90;;;;;;4977010;28;20214;-83
2021/07/04 13:42:35;;;;;;;6.90;6.20;;;27.10;99.90;;;;;;4980616;28;20669;-82
2021/07/04 13:45:05;;;;;;;6.73;6.23;;;27.10;99.90;;;;;;4965263;28;20221;-81
2021/07/04 13:47:33;;;;;;;6.77;6.27;;;27.30;99.90;;;;;;4971959;28;20217;-82
2021/07/04 13:50:00;;;;;;;7.00;6.50;;;27.30;99.90;;;;;;4971447;28;20225;-83
2021/07/04 13:52:27;;;;;;;6.43;6.00;;;27.40;99.90;;;;;;4958848;28;20191;-81
2021/07/04 13:54:54;;;;;;;6.70;6.20;;;27.30;99.90;;;;;;4977231;28;20247;-81
2021/07/04 13:57:21;;;;;;;6.53;6.03;;;27.10;99.90;;;;;;4959945;28;20203;-81
2021/07/04 13:59:47;;;;;;;6.70;6.20;;;26.80;99.90;;;;;;4977611;28;20214;-81
2021/07/04 14:02:14;;;;;;;6.37;5.97;;;26.60;99.90;;;;;;4967509;28;20258;-81
2021/07/04 14:04:42;;;;;;;6.63;6.00;;;26.40;99.90;;;;;;4983324;28;20202;-81
2021/07/04 14:07:10;;;;;;;6.50;6.00;;;26.20;99.90;;;;;;4957378;28;20233;-82
2021/07/04 14:09:37;;;;;;;7.20;6.43;;;26.30;99.90;;;;;;4974438;28;20620;-82
2021/07/04 14:12:05;;;;;;;6.37;5.97;;;26.30;99.90;;;;;;4973270;28;20194;-82
2021/07/04 14:14:32;;;;;;;7.47;6.87;;;26.50;99.90;;;;;;4970404;28;20198;-81
2021/07/04 14:17:01;;;;;;;7.43;6.83;;;26.70;99.90;;;;;;4965109;28;20191;-81
2021/07/04 14:19:29;;;;;;;6.33;5.93;;;26.80;99.90;;;;;;4965934;28;20222;-81
2021/07/04 14:21:57;;;;;;;6.40;6.00;;;27.00;99.90;;;;;;4965338;28;20195;-81
2021/07/04 14:24:24;;;;;;;6.33;5.93;;;27.10;99.90;;;;;;4964573;28;20245;-82
2021/07/04 14:26:51;;;;;;;6.70;6.20;;;27.10;99.90;;;;;;4962497;28;20218;-80
2021/07/04 14:29:18;;;;;;;3.30;3.00;;;27.10;99.90;;;;;;4959659;28;20206;-81
2021/07/04 14:31:45;;;;;;;4.20;3.90;;;27.10;99.90;;;;;;4965926;28;20198;-81
2021/07/04 14:34:11;;;;;;;4.63;4.20;;;27.10;99.90;;;;;;4966390;28;20254;-81
2021/07/04 14:36:38;;;;;;;3.00;2.80;;;27.10;99.90;;;;;;4956761;28;20560;-82
2021/07/04 14:39:09;;;;;;;4.07;3.77;;;27.10;99.90;;;;;;4964596;28;20228;-81
2021/07/04 14:41:36;;;;;;;3.83;3.53;;;27.00;99.90;;;;;;4954703;28;20205;-80
2021/07/04 14:44:04;;;;;;;3.87;3.57;;;27.00;99.90;;;;;;4958742;28;20677;-81
2021/07/04 14:46:34;;;;;;;5.07;4.77;;;27.10;99.90;;;;;;4953366;28;20319;-81
2021/07/04 14:49:01;;;;;;;4.47;4.17;;;27.00;99.90;;;;;;4950867;28;20202;-82
2021/07/04 14:58:23;;;;;;;2.43;2.33;;;26.80;99.90;;;;;;4929472;28;20210;-79
2021/07/04 15:01:03;;;;;;;2.97;2.77;;;26.60;99.90;;;;;;4951744;28;20323;-79
2021/07/04 15:03:55;;;;;;;4.23;3.90;;;26.50;99.90;;;;;;4967305;28;20187;-82
2021/07/04 15:06:22;;;;;;;4.33;4.03;;;26.30;99.90;;;;;;4964385;28;20218;-80
2021/07/04 15:08:58;;;;;;;4.70;4.33;;;26.10;99.90;;;;;;4960089;28;20190;-79
2021/07/04 15:11:25;;;;;;;4.77;4.47;;;25.80;99.90;;;;;;4955195;28;20221;-78
2021/07/04 15:13:53;;;;;;;4.73;4.37;;;25.70;99.90;;;;;;4951665;28;20213;-78
2021/07/04 15:16:44;;;;;;;3.20;2.90;;;25.30;99.90;;;;;;4939339;28;20251;-79
2021/07/04 15:19:45;;;;;;;;;;;;;;;;;;;;;
2021/07/04 15:22:15;;;;;;;5.97;4.67;;;24.70;99.90;;;;;;4949454;29;20234;-79
2021/07/04 15:24:42;;;;;;;17.77;7.83;;;24.20;99.90;;;;;;4952688;28;20656;-75
2021/07/04 15:27:12;;;;;;;16.23;7.70;;;23.40;99.90;;;;;;4951820;29;20215;-80
2021/07/04 15:29:40;;;;;;;9.73;7.10;;;22.20;99.90;;;;;;4941909;29;20712;-77
2021/07/04 15:32:08;;;;;;;8.63;6.30;;;21.20;99.90;;;;;;4947375;29;20821;-78
2021/07/04 15:34:35;;;;;;;7.47;6.73;;;20.50;99.90;;;;;;4952695;28;20209;-78
2021/07/04 15:37:02;;;;;;;7.37;6.60;;;20.10;99.90;;;;;;4944669;29;20206;-79
2021/07/04 15:39:28;;;;;;;7.20;6.60;;;20.00;99.90;;;;;;4937785;29;20275;-78
2021/07/04 15:41:56;;;;;;;7.57;6.87;;;20.00;99.90;;;;;;4938323;29;20224;-79
2021/07/04 15:44:24;;;;;;;7.60;7.00;;;20.20;99.90;;;;;;4935561;29;20280;-78
2021/07/04 15:46:55;;;;;;;7.83;7.23;;;20.30;99.90;;;;;;4937953;29;20307;-79
2021/07/04 15:49:23;;;;;;;7.00;6.50;;;20.50;99.90;;;;;;4937101;29;20200;-78
2021/07/04 15:51:50;;;;;;;7.17;6.53;;;20.60;99.90;;;;;;4938402;29;20274;-77
2021/07/04 15:54:17;;;;;;;7.40;6.90;;;20.70;99.90;;;;;;4937251;29;20208;-79